createdAt,value
2017-09-12T00:00:06.159Z,77.40
2017-09-12T00:02:33.672Z,77.60
2017-09-12T00:05:01.954Z,78.00
2017-09-12T00:07:30.192Z,78.00
2017-09-12T00:09:57.739Z,77.50
2017-09-12T00:12:25.252Z,77.40
2017-09-12T00:14:52.948Z,77.80
2017-09-12T00:17:20.470Z,77.50
2017-09-12T00:19:48.004Z,77.80
2017-09-12T00:22:15.822Z,77.60
2017-09-12T00:24:43.383Z,77.40
2017-09-12T00:27:11.350Z,77.50
2017-09-12T00:29:38.906Z,77.80
2017-09-12T00:32:06.691Z,77.60
2017-09-12T00:34:34.256Z,77.60
2017-09-12T00:37:01.766Z,77.70
2017-09-12T00:39:30.292Z,77.80
2017-09-12T00:41:58.056Z,77.80
2017-09-12T00:44:25.560Z,77.40
2017-09-12T00:46:53.265Z,77.60
2017-09-12T00:49:21.040Z,77.20
2017-09-12T00:51:48.547Z,78.30
2017-09-12T00:54:16.056Z,78.10
2017-09-12T00:56:43.713Z,77.80
2017-09-12T00:59:11.220Z,77.50
2017-09-12T01:01:38.743Z,78.40
2017-09-12T01:04:07.316Z,78.00
2017-09-12T01:06:34.828Z,77.90
2017-09-12T01:09:02.537Z,78.10
2017-09-12T01:11:30.069Z,78.70
2017-09-12T01:13:57.571Z,78.00
2017-09-12T01:16:25.213Z,78.80
2017-09-12T01:18:52.717Z,78.70
2017-09-12T01:21:20.231Z,78.50
2017-09-12T01:23:47.768Z,78.60
2017-09-12T01:26:15.288Z,78.90
2017-09-12T01:28:42.808Z,79.10
2017-09-12T01:31:10.315Z,79.40
2017-09-12T01:33:37.828Z,80.40
2017-09-12T01:36:05.344Z,78.90
2017-09-12T01:38:33.252Z,79.50
2017-09-12T01:41:00.781Z,79.80
2017-09-12T01:43:28.460Z,79.20
2017-09-12T01:45:55.972Z,79.30
2017-09-12T01:48:23.656Z,79.30
2017-09-12T01:50:51.446Z,79.50
2017-09-12T01:53:19.009Z,79.40
2017-09-12T01:55:46.640Z,79.30
2017-09-12T01:58:14.433Z,79.20
2017-09-12T02:00:41.934Z,79.70
2017-09-12T02:03:09.603Z,79.30
2017-09-12T02:05:37.127Z,79.20
2017-09-12T02:08:04.639Z,79.40
2017-09-12T02:10:32.160Z,80.30
2017-09-12T02:12:59.656Z,79.20
2017-09-12T02:15:27.235Z,79.10
2017-09-12T02:17:55.360Z,79.10
2017-09-12T02:20:22.882Z,79.00
2017-09-12T02:22:50.399Z,79.00
2017-09-12T02:25:17.960Z,79.10
2017-09-12T02:27:45.473Z,78.80
2017-09-12T02:30:13.204Z,78.80
2017-09-12T02:32:40.963Z,79.20
2017-09-12T02:35:08.470Z,78.90
2017-09-12T02:37:35.986Z,79.40
2017-09-12T02:40:03.645Z,78.90
2017-09-12T02:42:31.152Z,78.80
2017-09-12T02:44:58.864Z,79.20
2017-09-12T02:47:26.398Z,79.20
2017-09-12T02:49:54.085Z,79.80
2017-09-12T02:52:21.592Z,78.90
2017-09-12T02:54:49.120Z,79.20
2017-09-12T02:57:17.148Z,79.10
2017-09-12T02:59:44.664Z,79.30
2017-09-12T03:02:13.213Z,79.00
2017-09-12T03:04:40.728Z,78.90
2017-09-12T03:07:08.307Z,78.90
2017-09-12T03:09:35.880Z,79.60
2017-09-12T03:12:03.400Z,79.10
2017-09-12T03:14:30.909Z,80.50
2017-09-12T03:16:58.409Z,79.20
2017-09-12T03:19:26.936Z,80.10
2017-09-12T03:21:54.449Z,80.00
2017-09-12T03:24:22.446Z,80.00
2017-09-12T03:26:49.948Z,80.30
2017-09-12T03:29:17.468Z,80.40
2017-09-12T03:31:44.969Z,80.70
2017-09-12T03:34:12.594Z,80.50
2017-09-12T03:36:40.093Z,80.40
2017-09-12T03:39:07.825Z,80.60
2017-09-12T03:41:35.336Z,80.80
2017-09-12T03:44:02.855Z,81.20
2017-09-12T03:46:30.371Z,81.00
2017-09-12T03:48:57.960Z,81.20
2017-09-12T03:51:25.481Z,81.00
2017-09-12T03:53:53.315Z,81.20
2017-09-12T03:56:21.628Z,81.00
2017-09-12T03:58:49.325Z,80.90
2017-09-12T04:01:16.837Z,81.00
2017-09-12T04:03:44.540Z,81.20
2017-09-12T04:06:12.080Z,81.10
2017-09-12T04:08:39.563Z,81.20
2017-09-12T04:11:07.520Z,81.30
2017-09-12T04:13:35.055Z,81.40
2017-09-12T04:16:02.568Z,81.20
2017-09-12T04:18:31.131Z,81.90
2017-09-12T04:20:58.880Z,81.90
2017-09-12T04:23:26.402Z,81.20
2017-09-12T04:25:53.915Z,81.40
2017-09-12T04:28:21.431Z,81.90
2017-09-12T04:30:49.008Z,81.60
2017-09-12T04:33:16.520Z,82.00
2017-09-12T04:35:44.803Z,82.50
2017-09-12T04:38:12.319Z,82.50
2017-09-12T04:40:39.856Z,81.90
2017-09-12T04:43:07.525Z,82.00
2017-09-12T04:45:35.057Z,82.50
2017-09-12T04:48:02.749Z,82.50
2017-09-12T04:50:30.256Z,82.60
2017-09-12T04:52:57.788Z,82.60
2017-09-12T04:55:25.436Z,82.50
2017-09-12T04:57:52.940Z,82.70
2017-09-12T05:00:20.615Z,82.70
2017-09-12T05:02:48.132Z,82.50
2017-09-12T05:05:15.869Z,82.80
2017-09-12T05:07:43.396Z,83.00
2017-09-12T05:10:11.087Z,82.90
2017-09-12T05:12:38.584Z,83.00
2017-09-12T05:15:06.130Z,83.10
2017-09-12T05:17:34.406Z,83.00
2017-09-12T05:20:01.916Z,83.00
2017-09-12T05:22:29.427Z,83.60
2017-09-12T05:24:56.927Z,83.20
2017-09-12T05:27:25.252Z,84.00
2017-09-12T05:29:52.882Z,83.40
2017-09-12T05:32:20.651Z,84.40
2017-09-12T05:34:48.804Z,83.60
2017-09-12T05:37:16.484Z,84.10
2017-09-12T05:39:43.997Z,83.10
2017-09-12T05:42:11.500Z,83.40
2017-09-12T05:44:39.275Z,83.40
2017-09-12T05:47:06.767Z,84.50
2017-09-12T05:49:35.070Z,83.30
2017-09-12T05:52:02.565Z,83.30
2017-09-12T05:54:30.208Z,83.30
2017-09-12T05:56:57.992Z,83.20
2017-09-12T05:59:25.741Z,83.60
2017-09-12T06:01:53.500Z,83.20
2017-09-12T06:04:21.005Z,84.10
2017-09-12T06:06:48.719Z,83.20
2017-09-12T06:09:16.225Z,84.10
2017-09-12T06:11:43.918Z,83.50
2017-09-12T06:14:11.739Z,83.20
2017-09-12T06:16:39.616Z,83.20
2017-09-12T06:19:07.880Z,83.40
2017-09-12T06:21:35.408Z,83.30
2017-09-12T06:24:03.292Z,83.50
2017-09-12T06:26:30.792Z,83.70
2017-09-12T06:28:58.304Z,83.90
2017-09-12T06:31:27.022Z,84.00
2017-09-12T06:33:54.517Z,84.00
2017-09-12T06:36:22.034Z,84.10
2017-09-12T06:38:50.295Z,83.90
2017-09-12T06:41:17.807Z,83.70
2017-09-12T06:43:45.464Z,84.40
2017-09-12T06:46:12.969Z,84.30
2017-09-12T06:48:40.752Z,84.80
2017-09-12T06:51:08.304Z,84.70
2017-09-12T06:53:36.308Z,84.10
2017-09-12T06:56:03.868Z,85.10
2017-09-12T06:58:31.403Z,84.30
2017-09-12T07:00:58.911Z,84.50
2017-09-12T07:03:26.413Z,85.30
2017-09-12T07:05:53.919Z,86.50
2017-09-12T07:08:21.467Z,87.00
2017-09-12T07:10:48.959Z,87.10
2017-09-12T07:13:16.473Z,87.20
2017-09-12T07:15:43.976Z,87.10
2017-09-12T07:18:11.721Z,87.30
2017-09-12T07:20:39.883Z,87.10
2017-09-12T07:23:07.452Z,87.20
2017-09-12T07:25:35.954Z,87.20
2017-09-12T07:28:03.464Z,87.10
2017-09-12T07:30:30.983Z,87.00
2017-09-12T07:32:59.253Z,86.70
2017-09-12T07:35:26.763Z,86.70
2017-09-12T07:37:54.273Z,86.80
2017-09-12T07:40:22.569Z,86.60
2017-09-12T07:42:50.264Z,86.60
2017-09-12T07:45:18.041Z,86.50
2017-09-12T07:47:45.807Z,86.10
2017-09-12T07:50:13.321Z,85.90
2017-09-12T07:52:40.926Z,86.20
2017-09-12T07:55:09.197Z,85.90
2017-09-12T07:57:36.701Z,85.80
2017-09-12T08:00:05.113Z,86.20
2017-09-12T08:02:32.703Z,86.20
2017-09-12T08:05:00.455Z,86.70
2017-09-12T08:07:27.960Z,86.70
2017-09-12T08:09:55.650Z,88.00
2017-09-12T08:12:23.184Z,88.10
2017-09-12T08:14:51.520Z,88.40
2017-09-12T08:17:19.041Z,88.40
2017-09-12T08:19:46.548Z,88.20
2017-09-12T08:22:14.190Z,88.80
2017-09-12T08:24:41.691Z,88.20
2017-09-12T08:27:09.308Z,88.60
2017-09-12T08:29:36.941Z,88.60
2017-09-12T08:32:04.617Z,88.50
2017-09-12T08:34:32.160Z,89.20
2017-09-12T08:36:59.677Z,89.70
2017-09-12T08:39:27.952Z,90.20
2017-09-12T08:41:55.459Z,89.80
2017-09-12T08:44:22.990Z,90.00
2017-09-12T08:46:50.500Z,90.00
2017-09-12T08:49:18.011Z,90.60
2017-09-12T08:51:45.537Z,90.50
2017-09-12T08:54:13.064Z,92.00
2017-09-12T08:56:40.740Z,92.60
2017-09-12T08:59:08.505Z,92.90
2017-09-12T09:01:36.021Z,93.20
2017-09-12T09:04:03.531Z,93.50
2017-09-12T09:06:31.141Z,93.60
2017-09-12T09:08:58.656Z,93.50
2017-09-12T09:11:26.208Z,93.30
2017-09-12T09:13:53.775Z,93.20
2017-09-12T09:16:22.045Z,92.70
2017-09-12T09:18:49.576Z,92.70
2017-09-12T09:21:17.112Z,93.00
2017-09-12T09:23:44.624Z,93.20
2017-09-12T09:26:12.144Z,92.90
2017-09-12T09:28:39.673Z,92.80
2017-09-12T09:31:07.180Z,92.40
2017-09-12T09:33:35.593Z,92.60
2017-09-12T09:36:03.096Z,92.70
2017-09-12T09:38:30.867Z,91.20
2017-09-12T09:40:58.644Z,91.20
2017-09-12T09:43:26.191Z,91.10
2017-09-12T09:45:54.523Z,91.30
2017-09-12T09:48:22.182Z,91.20
2017-09-12T09:50:49.698Z,91.90
2017-09-12T09:53:18.736Z,91.30
2017-09-12T09:55:46.251Z,91.30
2017-09-12T09:58:13.788Z,90.80
2017-09-12T10:00:41.334Z,91.00
2017-09-12T10:03:08.840Z,91.60
2017-09-12T10:05:36.600Z,91.30
2017-09-12T10:08:04.109Z,91.10
2017-09-12T10:10:31.776Z,91.20
2017-09-12T10:12:59.277Z,90.80
2017-09-12T10:15:26.798Z,90.40
2017-09-12T10:17:54.312Z,90.10
2017-09-12T10:20:22.792Z,88.40
2017-09-12T10:22:50.298Z,88.30
2017-09-12T10:25:17.816Z,87.90
2017-09-12T10:27:45.324Z,85.30
2017-09-12T10:30:12.833Z,84.00
2017-09-12T10:32:40.345Z,83.80
2017-09-12T10:35:07.868Z,81.40
2017-09-12T10:37:35.383Z,81.30
2017-09-12T10:40:02.908Z,79.50
2017-09-12T10:42:30.407Z,81.20
2017-09-12T10:44:58.713Z,79.70
2017-09-12T10:47:26.365Z,79.60
2017-09-12T10:49:53.883Z,79.30
2017-09-12T10:52:21.633Z,78.90
2017-09-12T10:54:49.876Z,79.50
2017-09-12T10:57:17.464Z,78.80
2017-09-12T10:59:44.992Z,79.50
2017-09-12T11:02:12.680Z,79.70
2017-09-12T11:04:40.245Z,80.80
2017-09-12T11:07:07.758Z,80.80
2017-09-12T11:09:35.358Z,79.90
2017-09-12T11:12:03.123Z,80.00
2017-09-12T11:14:30.624Z,80.00
2017-09-12T11:16:58.342Z,80.20
2017-09-12T11:19:25.861Z,80.70
2017-09-12T11:21:53.365Z,80.30
2017-09-12T11:24:20.971Z,80.60
2017-09-12T11:26:48.599Z,79.90
2017-09-12T11:29:16.233Z,79.50
2017-09-12T11:31:43.744Z,79.30
2017-09-12T11:34:11.269Z,78.40
2017-09-12T11:36:38.800Z,76.20
2017-09-12T11:39:06.668Z,76.40
2017-09-12T11:41:34.233Z,76.50
2017-09-12T11:44:01.742Z,77.00
2017-09-12T11:46:30.268Z,78.70
2017-09-12T11:48:58.200Z,78.70
2017-09-12T11:51:25.723Z,77.80
2017-09-12T11:53:53.249Z,77.30
2017-09-12T11:56:21.017Z,77.60
2017-09-12T11:58:48.657Z,75.80
2017-09-12T12:01:17.064Z,77.10
2017-09-12T12:03:44.602Z,74.90
2017-09-12T12:06:12.559Z,75.00
2017-09-12T12:08:40.148Z,75.00
2017-09-12T12:11:07.651Z,69.60
2017-09-12T12:13:35.349Z,67.20
2017-09-12T12:16:02.848Z,68.40
2017-09-12T12:18:30.368Z,70.00
2017-09-12T12:20:58.016Z,70.80
2017-09-12T12:23:25.544Z,71.90
2017-09-12T12:25:53.277Z,72.20
2017-09-12T12:28:21.668Z,78.80
2017-09-12T12:30:49.175Z,79.20
2017-09-12T12:33:16.692Z,81.60
2017-09-12T12:35:45.278Z,84.70
2017-09-12T12:38:13.000Z,84.70
2017-09-12T12:40:40.544Z,85.60
2017-09-12T12:43:08.066Z,86.30
2017-09-12T12:45:36.381Z,84.10
2017-09-12T12:48:03.877Z,84.10
2017-09-12T12:50:31.397Z,84.70
2017-09-12T12:52:59.000Z,84.70
2017-09-12T12:55:26.517Z,82.60
2017-09-12T12:57:54.033Z,82.40
2017-09-12T13:00:22.305Z,78.40
2017-09-12T13:02:50.021Z,78.40
2017-09-12T13:05:17.785Z,77.60
2017-09-12T13:07:45.426Z,78.10
2017-09-12T13:10:12.982Z,77.50
2017-09-12T13:12:40.488Z,77.90
2017-09-12T13:15:08.004Z,78.00
2017-09-12T13:17:35.509Z,77.30
2017-09-12T13:20:03.160Z,76.70
2017-09-12T13:22:30.683Z,76.80
2017-09-12T13:24:58.180Z,77.70
2017-09-12T13:27:25.690Z,76.20
2017-09-12T13:29:53.207Z,76.80
2017-09-12T13:32:20.732Z,73.40
2017-09-12T13:34:48.673Z,71.50
2017-09-12T13:37:16.183Z,73.60
2017-09-12T13:39:43.792Z,73.70
2017-09-12T13:42:11.297Z,74.00
2017-09-12T13:44:38.966Z,76.40
2017-09-12T13:47:06.464Z,76.60
2017-09-12T13:49:34.005Z,77.10
2017-09-12T13:52:01.548Z,77.80
2017-09-12T13:54:29.079Z,79.60
2017-09-12T13:56:56.599Z,80.10
2017-09-12T13:59:24.303Z,79.40
2017-09-12T14:01:53.067Z,79.60
2017-09-12T14:04:20.585Z,78.90
2017-09-12T14:06:48.097Z,79.10
2017-09-12T14:09:15.628Z,77.30
2017-09-12T14:11:43.155Z,79.40
2017-09-12T14:14:10.852Z,78.20
2017-09-12T14:16:38.638Z,77.90
2017-09-12T14:19:06.143Z,75.50
2017-09-12T14:21:33.675Z,76.10
2017-09-12T14:24:01.202Z,76.20
2017-09-12T14:26:28.717Z,76.10
2017-09-12T14:28:56.227Z,75.20
2017-09-12T14:31:23.732Z,75.30
2017-09-12T14:33:51.417Z,74.60
2017-09-12T14:36:18.927Z,75.40
2017-09-12T14:38:46.433Z,74.00
2017-09-12T14:41:14.089Z,72.10
2017-09-12T14:43:41.600Z,71.30
2017-09-12T14:46:09.119Z,70.30
2017-09-12T14:48:36.628Z,69.40
2017-09-12T14:51:05.130Z,67.80
2017-09-12T14:53:32.660Z,67.00
2017-09-12T14:56:00.173Z,69.30
2017-09-12T14:58:27.690Z,68.90
2017-09-12T15:00:55.967Z,68.30
2017-09-12T15:03:23.497Z,68.30
2017-09-12T15:05:51.071Z,68.60
2017-09-12T15:08:18.612Z,70.00
2017-09-12T15:10:46.156Z,70.20
2017-09-12T15:13:13.820Z,71.30
2017-09-12T15:15:41.344Z,70.00
2017-09-12T15:18:09.219Z,71.60
2017-09-12T15:20:36.775Z,71.30
2017-09-12T15:23:04.293Z,70.70
2017-09-12T15:25:31.813Z,71.60
2017-09-12T15:27:59.550Z,70.70
2017-09-12T15:30:27.044Z,71.20
2017-09-12T15:32:54.692Z,71.70
2017-09-12T15:35:22.202Z,70.30
2017-09-12T15:37:49.890Z,71.10
2017-09-12T15:40:17.396Z,70.90
2017-09-12T15:42:44.921Z,70.90
2017-09-12T15:45:12.468Z,71.10
2017-09-12T15:47:40.046Z,71.30
2017-09-12T15:50:07.563Z,71.60
2017-09-12T15:52:35.073Z,72.00
2017-09-12T15:55:02.652Z,72.60
2017-09-12T15:57:30.197Z,72.90
2017-09-12T15:59:57.716Z,72.90
2017-09-12T16:02:25.585Z,73.50
2017-09-12T16:04:53.087Z,73.30
2017-09-12T16:07:20.654Z,71.40
2017-09-12T16:09:48.170Z,67.40
2017-09-12T16:12:16.097Z,66.20
2017-09-12T16:14:43.613Z,65.30
2017-09-12T16:17:11.121Z,65.30
2017-09-12T16:19:38.644Z,66.30
2017-09-12T16:22:06.257Z,67.90
2017-09-12T16:24:33.786Z,68.80
2017-09-12T16:27:01.311Z,68.40
2017-09-12T16:29:28.884Z,68.70
2017-09-12T16:31:58.237Z,69.10
2017-09-12T16:34:25.789Z,70.20
2017-09-12T16:36:53.476Z,70.60
2017-09-12T16:39:21.024Z,71.40
2017-09-12T16:41:48.563Z,71.80
2017-09-12T16:44:16.083Z,72.20
2017-09-12T16:46:43.634Z,72.40
2017-09-12T16:49:11.144Z,73.30
2017-09-12T16:51:38.714Z,75.80
2017-09-12T16:54:06.236Z,74.20
2017-09-12T16:56:33.758Z,74.90
2017-09-12T16:59:01.526Z,74.90
2017-09-12T17:01:29.061Z,76.20
2017-09-12T17:03:56.700Z,76.30
2017-09-12T17:06:24.223Z,76.70
2017-09-12T17:08:51.729Z,76.40
2017-09-12T17:11:19.245Z,77.10
2017-09-12T17:13:47.552Z,78.30
2017-09-12T17:16:15.062Z,78.20
2017-09-12T17:18:42.694Z,78.40
2017-09-12T17:21:10.216Z,78.90
2017-09-12T17:23:37.724Z,78.70
2017-09-12T17:26:05.241Z,78.90
2017-09-12T17:28:32.756Z,79.50
2017-09-12T17:31:00.276Z,79.90
2017-09-12T17:33:28.048Z,80.00
2017-09-12T17:35:55.590Z,80.10
2017-09-12T17:38:23.873Z,80.20
2017-09-12T17:40:51.660Z,80.60
2017-09-12T17:43:19.177Z,80.80
2017-09-12T17:45:46.705Z,80.80
2017-09-12T17:48:15.006Z,81.30
2017-09-12T17:50:42.705Z,81.30
2017-09-12T17:53:10.336Z,81.50
2017-09-12T17:55:38.284Z,81.70
2017-09-12T17:58:05.808Z,82.20
2017-09-12T18:00:33.305Z,81.80
2017-09-12T18:03:00.884Z,82.30
2017-09-12T18:05:28.663Z,82.00
2017-09-12T18:07:56.779Z,82.90
2017-09-12T18:10:24.500Z,82.00
2017-09-12T18:12:51.998Z,83.30
2017-09-12T18:15:20.447Z,82.40
2017-09-12T18:17:47.958Z,82.70
2017-09-12T18:20:15.453Z,83.10
2017-09-12T18:22:42.957Z,83.20
2017-09-12T18:25:10.488Z,83.40
2017-09-12T18:27:38.018Z,83.60
2017-09-12T18:30:05.519Z,83.40
2017-09-12T18:32:33.796Z,83.80
2017-09-12T18:35:01.296Z,83.80
2017-09-12T18:37:28.814Z,83.70
2017-09-12T18:39:57.942Z,83.50
2017-09-12T18:42:25.437Z,83.40
2017-09-12T18:44:53.191Z,83.00
2017-09-12T18:47:21.208Z,83.20
2017-09-12T18:49:48.945Z,83.30
2017-09-12T18:52:16.442Z,83.40
2017-09-12T18:54:44.248Z,83.30
2017-09-12T18:57:12.265Z,82.50
2017-09-12T18:59:39.989Z,83.70
2017-09-12T19:02:07.541Z,83.10
2017-09-12T19:04:35.050Z,83.30
2017-09-12T19:07:03.063Z,82.90
2017-09-12T19:09:30.830Z,83.50
2017-09-12T19:11:58.340Z,82.90
2017-09-12T19:14:25.857Z,83.00
2017-09-12T19:16:53.477Z,83.50
2017-09-12T19:19:20.989Z,82.60
2017-09-12T19:21:48.485Z,82.60
2017-09-12T19:24:15.991Z,82.90
2017-09-12T19:26:43.524Z,83.30
2017-09-12T19:29:11.039Z,84.20
2017-09-12T19:31:38.780Z,83.40
2017-09-12T19:34:07.232Z,83.70
2017-09-12T19:36:34.996Z,83.70
2017-09-12T19:39:02.512Z,83.90
2017-09-12T19:41:30.195Z,84.00
2017-09-12T19:43:57.931Z,84.20
2017-09-12T19:46:25.457Z,84.20
2017-09-12T19:48:52.997Z,84.60
2017-09-12T19:51:20.657Z,85.10
2017-09-12T19:53:48.420Z,85.30
2017-09-12T19:56:15.936Z,85.30
2017-09-12T19:58:43.657Z,86.50
2017-09-12T20:01:12.611Z,85.80
2017-09-12T20:03:40.412Z,86.20
2017-09-12T20:06:08.693Z,86.00
2017-09-12T20:08:36.333Z,86.30
2017-09-12T20:11:04.008Z,86.40
2017-09-12T20:13:31.512Z,86.20
2017-09-12T20:15:59.025Z,86.20
2017-09-12T20:18:26.541Z,86.40
2017-09-12T20:20:54.149Z,86.20
2017-09-12T20:23:21.734Z,86.60
2017-09-12T20:25:50.664Z,87.20
2017-09-12T20:28:19.004Z,87.00
2017-09-12T20:30:46.533Z,87.00
2017-09-12T20:33:14.032Z,86.70
2017-09-12T20:35:41.632Z,86.40
2017-09-12T20:38:10.145Z,86.60
2017-09-12T20:40:38.712Z,87.90
2017-09-12T20:43:06.472Z,87.20
2017-09-12T20:45:34.239Z,87.10
2017-09-12T20:48:01.954Z,87.10
2017-09-12T20:50:29.458Z,86.70
2017-09-12T20:52:57.385Z,87.10
2017-09-12T20:55:24.989Z,87.20
2017-09-12T20:57:52.510Z,87.30
2017-09-12T21:00:20.432Z,87.60
2017-09-12T21:02:47.958Z,87.70
2017-09-12T21:05:15.457Z,87.20
2017-09-12T21:07:43.191Z,87.70
2017-09-12T21:10:10.705Z,87.50
2017-09-12T21:12:38.388Z,87.50
2017-09-12T21:15:05.893Z,87.20
2017-09-12T21:17:33.419Z,87.90
2017-09-12T21:20:01.040Z,88.00
2017-09-12T21:22:28.845Z,88.40
2017-09-12T21:24:56.350Z,88.30
2017-09-12T21:27:24.028Z,88.20
2017-09-12T21:29:51.559Z,88.20
2017-09-12T21:32:19.124Z,88.40
2017-09-12T21:34:46.643Z,88.60
2017-09-12T21:37:14.199Z,88.30
2017-09-12T21:39:43.233Z,88.30
2017-09-12T21:42:10.750Z,88.30
2017-09-12T21:44:38.400Z,87.80
2017-09-12T21:47:05.908Z,87.80
2017-09-12T21:49:33.491Z,87.80
2017-09-12T21:52:00.997Z,87.90
2017-09-12T21:54:28.510Z,87.50
2017-09-12T21:56:56.039Z,87.60
2017-09-12T21:59:23.752Z,87.60
2017-09-12T22:01:51.264Z,87.80
2017-09-12T22:04:18.782Z,87.50
2017-09-12T22:06:46.401Z,87.60
2017-09-12T22:09:13.911Z,87.80
2017-09-12T22:11:41.661Z,88.00
2017-09-12T22:14:09.168Z,88.00
2017-09-12T22:16:36.697Z,88.00
2017-09-12T22:19:05.248Z,88.30
2017-09-12T22:21:32.756Z,88.30
2017-09-12T22:24:00.273Z,88.30
2017-09-12T22:26:27.795Z,88.60
2017-09-12T22:28:55.299Z,88.60
2017-09-12T22:31:22.935Z,88.50
2017-09-12T22:33:51.827Z,89.00
2017-09-12T22:36:19.355Z,88.70
2017-09-12T22:38:46.976Z,88.90
2017-09-12T22:41:14.480Z,88.70
2017-09-12T22:43:42.429Z,88.70
2017-09-12T22:46:10.039Z,89.10
2017-09-12T22:48:37.567Z,89.10
2017-09-12T22:51:05.252Z,89.00
2017-09-12T22:53:32.779Z,89.00
2017-09-12T22:56:00.284Z,89.10
2017-09-12T22:58:27.952Z,89.40
2017-09-12T23:00:55.485Z,89.30
2017-09-12T23:03:23.160Z,88.90
2017-09-12T23:05:50.908Z,89.00
2017-09-12T23:08:18.677Z,88.90
2017-09-12T23:10:46.189Z,89.00
2017-09-12T23:13:13.873Z,88.80
2017-09-12T23:15:41.376Z,88.90
2017-09-12T23:18:08.898Z,89.10
2017-09-12T23:20:36.443Z,89.10
2017-09-12T23:23:03.973Z,89.10
2017-09-12T23:25:31.488Z,89.20
2017-09-12T23:27:59.256Z,89.10
2017-09-12T23:30:26.883Z,88.90
2017-09-12T23:32:54.443Z,88.70
2017-09-12T23:35:21.960Z,88.50
2017-09-12T23:37:49.688Z,88.30
2017-09-12T23:40:17.893Z,88.30
2017-09-12T23:42:45.410Z,88.10
2017-09-12T23:45:12.976Z,88.40
2017-09-12T23:47:40.791Z,87.80
2017-09-12T23:50:08.302Z,87.90
2017-09-12T23:52:36.145Z,87.90
2017-09-12T23:55:03.716Z,87.60
2017-09-12T23:57:31.224Z,87.50
2017-09-12T23:59:58.912Z,87.40
